sensor_id;sensor_type;location;lat;lon;timestamp;P1;durP1;ratioP1;P2;durP2;ratioP2
27804;SDS011;15183;51.350;11.102;2023-06-22T00:01:00;9.65;;;7.03;;
27804;SDS011;15183;51.350;11.102;2023-06-22T00:03:26;10.20;;;6.55;;
27804;SDS011;15183;51.350;11.102;2023-06-22T00:05:53;9.30;;;6.57;;
27804;SDS011;15183;51.350;11.102;2023-06-22T00:08:19;12.55;;;6.60;;
27804;SDS011;15183;51.350;11.102;2023-06-22T00:10:46;8.88;;;7.47;;
27804;SDS011;15183;51.350;11.102;2023-06-22T00:13:13;7.30;;;6.25;;
27804;SDS011;15183;51.350;11.102;2023-06-22T00:15:40;10.05;;;7.10;;
27804;SDS011;15183;51.350;11.102;2023-06-22T00:18:07;11.45;;;7.20;;
27804;SDS011;15183;51.350;11.102;2023-06-22T00:20:35;11.70;;;6.35;;
27804;SDS011;15183;51.350;11.102;2023-06-22T00:23:05;8.70;;;7.03;;
27804;SDS011;15183;51.350;11.102;2023-06-22T00:25:36;10.77;;;7.50;;
27804;SDS011;15183;51.350;11.102;2023-06-22T00:28:05;10.90;;;6.57;;
27804;SDS011;15183;51.350;11.102;2023-06-22T00:30:33;10.10;;;6.88;;
27804;SDS011;15183;51.350;11.102;2023-06-22T00:33:00;17.80;;;7.28;;
27804;SDS011;15183;51.350;11.102;2023-06-22T00:35:27;9.55;;;6.90;;
27804;SDS011;15183;51.350;11.102;2023-06-22T00:37:58;8.13;;;6.45;;
27804;SDS011;15183;51.350;11.102;2023-06-22T00:40:28;8.80;;;6.38;;
27804;SDS011;15183;51.350;11.102;2023-06-22T00:42:57;10.45;;;7.07;;
27804;SDS011;15183;51.350;11.102;2023-06-22T00:45:24;10.30;;;6.35;;
27804;SDS011;15183;51.350;11.102;2023-06-22T00:47:52;12.65;;;7.38;;
27804;SDS011;15183;51.350;11.102;2023-06-22T00:50:21;8.75;;;6.55;;
27804;SDS011;15183;51.350;11.102;2023-06-22T00:52:53;7.03;;;6.15;;
27804;SDS011;15183;51.350;11.102;2023-06-22T00:55:24;7.18;;;6.45;;
27804;SDS011;15183;51.350;11.102;2023-06-22T00:57:52;7.28;;;6.38;;
27804;SDS011;15183;51.350;11.102;2023-06-22T01:00:22;10.82;;;6.65;;
27804;SDS011;15183;51.350;11.102;2023-06-22T01:02:50;9.52;;;7.45;;
27804;SDS011;15183;51.350;11.102;2023-06-22T01:05:21;11.65;;;7.13;;
27804;SDS011;15183;51.350;11.102;2023-06-22T01:07:54;13.30;;;6.80;;
27804;SDS011;15183;51.350;11.102;2023-06-22T01:10:39;12.68;;;6.97;;
27804;SDS011;15183;51.350;11.102;2023-06-22T01:13:14;10.45;;;6.97;;
27804;SDS011;15183;51.350;11.102;2023-06-22T01:16:26;9.93;;;6.63;;
27804;SDS011;15183;51.350;11.102;2023-06-22T01:19:01;10.95;;;6.20;;
27804;SDS011;15183;51.350;11.102;2023-06-22T01:21:52;12.40;;;7.30;;
27804;SDS011;15183;51.350;11.102;2023-06-22T01:24:33;10.30;;;7.18;;
27804;SDS011;15183;51.350;11.102;2023-06-22T01:30:22;10.07;;;6.32;;
27804;SDS011;15183;51.350;11.102;2023-06-22T01:32:51;9.10;;;6.22;;
27804;SDS011;15183;51.350;11.102;2023-06-22T01:35:21;8.65;;;6.10;;
27804;SDS011;15183;51.350;11.102;2023-06-22T01:37:48;7.60;;;5.72;;
27804;SDS011;15183;51.350;11.102;2023-06-22T01:40:15;6.75;;;5.70;;
27804;SDS011;15183;51.350;11.102;2023-06-22T01:42:44;10.18;;;6.85;;
27804;SDS011;15183;51.350;11.102;2023-06-22T01:45:11;10.05;;;5.65;;
27804;SDS011;15183;51.350;11.102;2023-06-22T01:47:39;8.18;;;6.03;;
27804;SDS011;15183;51.350;11.102;2023-06-22T01:50:06;10.60;;;7.15;;
27804;SDS011;15183;51.350;11.102;2023-06-22T01:52:34;8.85;;;6.68;;
27804;SDS011;15183;51.350;11.102;2023-06-22T01:55:01;12.20;;;7.80;;
27804;SDS011;15183;51.350;11.102;2023-06-22T01:57:27;9.70;;;6.78;;
27804;SDS011;15183;51.350;11.102;2023-06-22T02:05:07;10.82;;;6.70;;
27804;SDS011;15183;51.350;11.102;2023-06-22T02:07:47;11.15;;;7.18;;
27804;SDS011;15183;51.350;11.102;2023-06-22T02:10:25;8.40;;;6.72;;
27804;SDS011;15183;51.350;11.102;2023-06-22T02:12:54;6.07;;;5.45;;
27804;SDS011;15183;51.350;11.102;2023-06-22T02:15:22;9.07;;;6.78;;
27804;SDS011;15183;51.350;11.102;2023-06-22T02:17:48;7.30;;;6.20;;
27804;SDS011;15183;51.350;11.102;2023-06-22T02:20:15;8.20;;;5.72;;
27804;SDS011;15183;51.350;11.102;2023-06-22T02:22:41;9.48;;;5.10;;
27804;SDS011;15183;51.350;11.102;2023-06-22T02:25:08;8.65;;;5.18;;
27804;SDS011;15183;51.350;11.102;2023-06-22T02:27:35;9.48;;;5.50;;
27804;SDS011;15183;51.350;11.102;2023-06-22T02:30:01;13.85;;;6.82;;
27804;SDS011;15183;51.350;11.102;2023-06-22T02:32:28;8.75;;;6.28;;
27804;SDS011;15183;51.350;11.102;2023-06-22T02:34:54;14.82;;;6.35;;
27804;SDS011;15183;51.350;11.102;2023-06-22T02:37:20;14.38;;;6.05;;
27804;SDS011;15183;51.350;11.102;2023-06-22T02:39:50;14.68;;;5.88;;
27804;SDS011;15183;51.350;11.102;2023-06-22T02:42:17;14.23;;;6.57;;
27804;SDS011;15183;51.350;11.102;2023-06-22T02:44:46;12.38;;;5.90;;
27804;SDS011;15183;51.350;11.102;2023-06-22T02:47:12;6.35;;;5.68;;
27804;SDS011;15183;51.350;11.102;2023-06-22T02:49:39;6.43;;;5.05;;
27804;SDS011;15183;51.350;11.102;2023-06-22T02:52:05;12.00;;;6.90;;
27804;SDS011;15183;51.350;11.102;2023-06-22T02:54:32;10.65;;;6.15;;
27804;SDS011;15183;51.350;11.102;2023-06-22T02:56:59;10.23;;;6.60;;
27804;SDS011;15183;51.350;11.102;2023-06-22T02:59:28;9.57;;;7.32;;
27804;SDS011;15183;51.350;11.102;2023-06-22T03:01:54;19.80;;;7.93;;
27804;SDS011;15183;51.350;11.102;2023-06-22T03:04:21;15.38;;;7.32;;
27804;SDS011;15183;51.350;11.102;2023-06-22T03:06:47;13.70;;;7.70;;
27804;SDS011;15183;51.350;11.102;2023-06-22T03:09:16;10.98;;;6.65;;
27804;SDS011;15183;51.350;11.102;2023-06-22T03:11:43;8.43;;;6.75;;
27804;SDS011;15183;51.350;11.102;2023-06-22T03:14:09;10.00;;;7.00;;
27804;SDS011;15183;51.350;11.102;2023-06-22T03:16:35;10.00;;;5.97;;
27804;SDS011;15183;51.350;11.102;2023-06-22T03:19:02;9.15;;;6.88;;
27804;SDS011;15183;51.350;11.102;2023-06-22T03:21:29;13.40;;;7.85;;
27804;SDS011;15183;51.350;11.102;2023-06-22T03:23:55;12.30;;;7.30;;
27804;SDS011;15183;51.350;11.102;2023-06-22T03:26:21;9.07;;;7.43;;
27804;SDS011;15183;51.350;11.102;2023-06-22T03:28:49;11.02;;;7.32;;
27804;SDS011;15183;51.350;11.102;2023-06-22T03:31:15;9.13;;;6.18;;
27804;SDS011;15183;51.350;11.102;2023-06-22T03:33:42;10.55;;;8.02;;
27804;SDS011;15183;51.350;11.102;2023-06-22T03:36:08;10.82;;;6.88;;
27804;SDS011;15183;51.350;11.102;2023-06-22T03:38:35;8.02;;;7.22;;
27804;SDS011;15183;51.350;11.102;2023-06-22T03:41:01;10.82;;;7.00;;
27804;SDS011;15183;51.350;11.102;2023-06-22T03:43:27;8.95;;;6.10;;
27804;SDS011;15183;51.350;11.102;2023-06-22T03:45:54;16.17;;;7.70;;
27804;SDS011;15183;51.350;11.102;2023-06-22T03:48:20;13.07;;;6.60;;
27804;SDS011;15183;51.350;11.102;2023-06-22T03:50:47;8.15;;;6.88;;
27804;SDS011;15183;51.350;11.102;2023-06-22T03:53:13;11.70;;;6.38;;
27804;SDS011;15183;51.350;11.102;2023-06-22T03:55:49;9.20;;;7.03;;
27804;SDS011;15183;51.350;11.102;2023-06-22T03:58:17;9.30;;;7.22;;
27804;SDS011;15183;51.350;11.102;2023-06-22T04:00:46;14.15;;;7.35;;
27804;SDS011;15183;51.350;11.102;2023-06-22T04:03:16;10.60;;;7.70;;
27804;SDS011;15183;51.350;11.102;2023-06-22T04:05:46;11.35;;;7.63;;
27804;SDS011;15183;51.350;11.102;2023-06-22T04:08:14;10.48;;;8.48;;
27804;SDS011;15183;51.350;11.102;2023-06-22T04:10:41;13.57;;;8.23;;
27804;SDS011;15183;51.350;11.102;2023-06-22T04:13:08;11.68;;;7.93;;
27804;SDS011;15183;51.350;11.102;2023-06-22T04:15:34;9.10;;;8.02;;
27804;SDS011;15183;51.350;11.102;2023-06-22T04:18:01;15.13;;;8.27;;
27804;SDS011;15183;51.350;11.102;2023-06-22T04:20:27;9.10;;;7.60;;
27804;SDS011;15183;51.350;11.102;2023-06-22T04:22:54;11.35;;;6.28;;
27804;SDS011;15183;51.350;11.102;2023-06-22T04:25:20;7.28;;;6.28;;
27804;SDS011;15183;51.350;11.102;2023-06-22T04:27:47;8.57;;;7.43;;
27804;SDS011;15183;51.350;11.102;2023-06-22T04:30:14;10.82;;;7.35;;
27804;SDS011;15183;51.350;11.102;2023-06-22T04:32:42;7.80;;;7.10;;
27804;SDS011;15183;51.350;11.102;2023-06-22T04:35:10;8.65;;;7.45;;
27804;SDS011;15183;51.350;11.102;2023-06-22T04:37:37;23.73;;;9.05;;
27804;SDS011;15183;51.350;11.102;2023-06-22T04:40:05;8.55;;;6.97;;
27804;SDS011;15183;51.350;11.102;2023-06-22T04:42:33;11.93;;;7.25;;
27804;SDS011;15183;51.350;11.102;2023-06-22T04:45:01;12.52;;;7.22;;
27804;SDS011;15183;51.350;11.102;2023-06-22T04:47:28;12.95;;;6.90;;
27804;SDS011;15183;51.350;11.102;2023-06-22T04:49:55;8.75;;;7.20;;
27804;SDS011;15183;51.350;11.102;2023-06-22T04:52:21;6.70;;;5.50;;
27804;SDS011;15183;51.350;11.102;2023-06-22T04:54:48;6.95;;;6.35;;
27804;SDS011;15183;51.350;11.102;2023-06-22T04:57:21;14.55;;;7.80;;
27804;SDS011;15183;51.350;11.102;2023-06-22T04:59:56;10.20;;;7.78;;
27804;SDS011;15183;51.350;11.102;2023-06-22T05:02:22;8.60;;;6.18;;
27804;SDS011;15183;51.350;11.102;2023-06-22T05:04:57;13.52;;;8.20;;
27804;SDS011;15183;51.350;11.102;2023-06-22T05:07:24;9.90;;;7.63;;
27804;SDS011;15183;51.350;11.102;2023-06-22T05:09:51;9.55;;;7.63;;
27804;SDS011;15183;51.350;11.102;2023-06-22T05:12:17;9.65;;;8.38;;
27804;SDS011;15183;51.350;11.102;2023-06-22T05:14:44;9.82;;;8.70;;
27804;SDS011;15183;51.350;11.102;2023-06-22T05:17:10;8.95;;;8.07;;
27804;SDS011;15183;51.350;11.102;2023-06-22T05:19:39;12.25;;;9.40;;
27804;SDS011;15183;51.350;11.102;2023-06-22T05:22:10;12.50;;;10.13;;
27804;SDS011;15183;51.350;11.102;2023-06-22T05:24:38;10.57;;;9.15;;
27804;SDS011;15183;51.350;11.102;2023-06-22T05:27:04;12.40;;;9.55;;
27804;SDS011;15183;51.350;11.102;2023-06-22T05:29:31;11.27;;;8.95;;
27804;SDS011;15183;51.350;11.102;2023-06-22T05:31:57;10.93;;;9.07;;
27804;SDS011;15183;51.350;11.102;2023-06-22T05:34:23;14.88;;;10.32;;
27804;SDS011;15183;51.350;11.102;2023-06-22T05:36:50;11.07;;;8.20;;
27804;SDS011;15183;51.350;11.102;2023-06-22T05:39:16;16.17;;;10.73;;
27804;SDS011;15183;51.350;11.102;2023-06-22T05:41:46;13.25;;;9.32;;
27804;SDS011;15183;51.350;11.102;2023-06-22T05:44:12;10.90;;;7.80;;
27804;SDS011;15183;51.350;11.102;2023-06-22T05:46:40;16.88;;;9.80;;
27804;SDS011;15183;51.350;11.102;2023-06-22T05:49:12;11.98;;;9.10;;
27804;SDS011;15183;51.350;11.102;2023-06-22T05:51:39;8.88;;;7.97;;
27804;SDS011;15183;51.350;11.102;2023-06-22T05:54:06;13.20;;;8.27;;
27804;SDS011;15183;51.350;11.102;2023-06-22T05:56:34;14.95;;;8.40;;
27804;SDS011;15183;51.350;11.102;2023-06-22T05:59:01;12.93;;;9.98;;
27804;SDS011;15183;51.350;11.102;2023-06-22T06:01:27;13.90;;;9.07;;
27804;SDS011;15183;51.350;11.102;2023-06-22T06:03:54;10.18;;;9.05;;
27804;SDS011;15183;51.350;11.102;2023-06-22T06:06:20;9.98;;;8.95;;
27804;SDS011;15183;51.350;11.102;2023-06-22T06:08:48;13.57;;;9.02;;
27804;SDS011;15183;51.350;11.102;2023-06-22T06:11:14;10.82;;;8.35;;
27804;SDS011;15183;51.350;11.102;2023-06-22T06:13:41;12.88;;;9.05;;
27804;SDS011;15183;51.350;11.102;2023-06-22T06:16:07;10.70;;;9.07;;
27804;SDS011;15183;51.350;11.102;2023-06-22T06:18:34;9.70;;;8.60;;
27804;SDS011;15183;51.350;11.102;2023-06-22T06:21:00;10.23;;;8.85;;
27804;SDS011;15183;51.350;11.102;2023-06-22T06:23:26;9.63;;;7.43;;
27804;SDS011;15183;51.350;11.102;2023-06-22T06:25:53;10.00;;;8.43;;
27804;SDS011;15183;51.350;11.102;2023-06-22T06:28:19;11.70;;;8.65;;
27804;SDS011;15183;51.350;11.102;2023-06-22T06:30:47;12.25;;;9.27;;
27804;SDS011;15183;51.350;11.102;2023-06-22T06:33:13;15.68;;;9.93;;
27804;SDS011;15183;51.350;11.102;2023-06-22T06:35:40;13.45;;;10.38;;
27804;SDS011;15183;51.350;11.102;2023-06-22T06:38:06;11.77;;;9.20;;
27804;SDS011;15183;51.350;11.102;2023-06-22T06:40:33;11.27;;;9.75;;
27804;SDS011;15183;51.350;11.102;2023-06-22T06:42:59;13.73;;;9.70;;
27804;SDS011;15183;51.350;11.102;2023-06-22T06:45:26;13.75;;;10.10;;
27804;SDS011;15183;51.350;11.102;2023-06-22T06:47:54;11.68;;;10.27;;
27804;SDS011;15183;51.350;11.102;2023-06-22T06:50:20;16.25;;;11.50;;
27804;SDS011;15183;51.350;11.102;2023-06-22T06:52:46;10.48;;;9.30;;
27804;SDS011;15183;51.350;11.102;2023-06-22T06:55:13;15.13;;;10.93;;
27804;SDS011;15183;51.350;11.102;2023-06-22T06:57:40;13.10;;;11.20;;
27804;SDS011;15183;51.350;11.102;2023-06-22T07:00:08;13.93;;;11.18;;
27804;SDS011;15183;51.350;11.102;2023-06-22T07:02:38;15.15;;;12.52;;
27804;SDS011;15183;51.350;11.102;2023-06-22T07:05:06;16.83;;;12.73;;
27804;SDS011;15183;51.350;11.102;2023-06-22T07:07:32;12.60;;;11.32;;
27804;SDS011;15183;51.350;11.102;2023-06-22T07:09:59;19.02;;;12.63;;
27804;SDS011;15183;51.350;11.102;2023-06-22T07:12:26;12.82;;;11.63;;
27804;SDS011;15183;51.350;11.102;2023-06-22T07:14:52;13.20;;;11.80;;
27804;SDS011;15183;51.350;11.102;2023-06-22T07:17:19;14.38;;;12.40;;
27804;SDS011;15183;51.350;11.102;2023-06-22T07:19:45;12.95;;;11.18;;
27804;SDS011;15183;51.350;11.102;2023-06-22T07:22:12;13.95;;;12.52;;
27804;SDS011;15183;51.350;11.102;2023-06-22T07:24:41;16.83;;;12.18;;
27804;SDS011;15183;51.350;11.102;2023-06-22T07:27:08;14.57;;;12.82;;
27804;SDS011;15183;51.350;11.102;2023-06-22T07:29:37;17.65;;;13.98;;
27804;SDS011;15183;51.350;11.102;2023-06-22T07:32:06;14.50;;;13.10;;
27804;SDS011;15183;51.350;11.102;2023-06-22T07:34:33;18.15;;;13.98;;
27804;SDS011;15183;51.350;11.102;2023-06-22T07:36:59;15.20;;;13.60;;
27804;SDS011;15183;51.350;11.102;2023-06-22T07:39:26;17.30;;;13.02;;
27804;SDS011;15183;51.350;11.102;2023-06-22T07:41:53;14.60;;;13.10;;
27804;SDS011;15183;51.350;11.102;2023-06-22T07:44:20;15.82;;;13.23;;
27804;SDS011;15183;51.350;11.102;2023-06-22T07:46:47;14.57;;;12.93;;
27804;SDS011;15183;51.350;11.102;2023-06-22T07:49:13;16.23;;;14.23;;
27804;SDS011;15183;51.350;11.102;2023-06-22T07:51:40;14.32;;;12.93;;
27804;SDS011;15183;51.350;11.102;2023-06-22T07:54:06;13.27;;;11.98;;
27804;SDS011;15183;51.350;11.102;2023-06-22T07:56:32;13.77;;;12.43;;
27804;SDS011;15183;51.350;11.102;2023-06-22T07:58:59;15.18;;;13.68;;
27804;SDS011;15183;51.350;11.102;2023-06-22T08:01:27;12.73;;;11.18;;
27804;SDS011;15183;51.350;11.102;2023-06-22T08:03:53;12.48;;;11.27;;
27804;SDS011;15183;51.350;11.102;2023-06-22T08:06:20;14.23;;;12.82;;
27804;SDS011;15183;51.350;11.102;2023-06-22T08:08:46;14.98;;;13.55;;
27804;SDS011;15183;51.350;11.102;2023-06-22T08:11:14;14.48;;;12.32;;
27804;SDS011;15183;51.350;11.102;2023-06-22T08:13:41;13.98;;;12.68;;
27804;SDS011;15183;51.350;11.102;2023-06-22T08:16:07;14.82;;;12.70;;
27804;SDS011;15183;51.350;11.102;2023-06-22T08:18:34;12.75;;;11.55;;
27804;SDS011;15183;51.350;11.102;2023-06-22T08:21:00;14.80;;;13.27;;
27804;SDS011;15183;51.350;11.102;2023-06-22T08:23:27;14.57;;;12.93;;
27804;SDS011;15183;51.350;11.102;2023-06-22T08:25:53;16.30;;;12.38;;
27804;SDS011;15183;51.350;11.102;2023-06-22T08:28:20;15.77;;;12.15;;
27804;SDS011;15183;51.350;11.102;2023-06-22T08:30:46;12.38;;;11.20;;
27804;SDS011;15183;51.350;11.102;2023-06-22T08:33:13;13.30;;;11.80;;
27804;SDS011;15183;51.350;11.102;2023-06-22T08:35:39;12.32;;;11.10;;
27804;SDS011;15183;51.350;11.102;2023-06-22T08:38:06;14.15;;;12.50;;
27804;SDS011;15183;51.350;11.102;2023-06-22T08:40:34;14.95;;;13.45;;
27804;SDS011;15183;51.350;11.102;2023-06-22T08:43:00;12.23;;;10.38;;
27804;SDS011;15183;51.350;11.102;2023-06-22T08:45:27;11.80;;;10.60;;
27804;SDS011;15183;51.350;11.102;2023-06-22T08:47:53;14.27;;;12.25;;
27804;SDS011;15183;51.350;11.102;2023-06-22T08:50:20;12.07;;;10.98;;
27804;SDS011;15183;51.350;11.102;2023-06-22T08:52:46;13.25;;;11.77;;
27804;SDS011;15183;51.350;11.102;2023-06-22T08:55:13;13.43;;;12.02;;
27804;SDS011;15183;51.350;11.102;2023-06-22T08:57:40;11.68;;;10.55;;
27804;SDS011;15183;51.350;11.102;2023-06-22T09:00:07;14.10;;;11.68;;
27804;SDS011;15183;51.350;11.102;2023-06-22T09:02:42;11.57;;;10.38;;
27804;SDS011;15183;51.350;11.102;2023-06-22T09:05:10;12.25;;;11.07;;
27804;SDS011;15183;51.350;11.102;2023-06-22T09:07:36;11.38;;;10.27;;
27804;SDS011;15183;51.350;11.102;2023-06-22T09:10:03;10.60;;;9.60;;
27804;SDS011;15183;51.350;11.102;2023-06-22T09:12:31;11.75;;;10.55;;
27804;SDS011;15183;51.350;11.102;2023-06-22T09:14:59;10.75;;;9.68;;
27804;SDS011;15183;51.350;11.102;2023-06-22T09:17:26;11.02;;;9.93;;
27804;SDS011;15183;51.350;11.102;2023-06-22T09:19:53;9.88;;;8.98;;
27804;SDS011;15183;51.350;11.102;2023-06-22T09:22:19;11.38;;;10.27;;
27804;SDS011;15183;51.350;11.102;2023-06-22T09:24:46;10.27;;;9.25;;
27804;SDS011;15183;51.350;11.102;2023-06-22T09:27:12;9.35;;;8.45;;
27804;SDS011;15183;51.350;11.102;2023-06-22T09:29:39;10.25;;;9.18;;
27804;SDS011;15183;51.350;11.102;2023-06-22T09:32:05;9.65;;;7.95;;
27804;SDS011;15183;51.350;11.102;2023-06-22T09:34:32;12.20;;;10.52;;
27804;SDS011;15183;51.350;11.102;2023-06-22T09:36:59;10.98;;;9.90;;
27804;SDS011;15183;51.350;11.102;2023-06-22T09:39:26;10.27;;;9.35;;
27804;SDS011;15183;51.350;11.102;2023-06-22T09:41:52;16.20;;;10.00;;
27804;SDS011;15183;51.350;11.102;2023-06-22T09:44:19;9.20;;;8.27;;
27804;SDS011;15183;51.350;11.102;2023-06-22T09:46:45;10.80;;;9.73;;
27804;SDS011;15183;51.350;11.102;2023-06-22T09:49:12;10.43;;;9.32;;
27804;SDS011;15183;51.350;11.102;2023-06-22T09:51:38;11.02;;;10.02;;
27804;SDS011;15183;51.350;11.102;2023-06-22T09:54:05;10.88;;;9.00;;
27804;SDS011;15183;51.350;11.102;2023-06-22T09:56:31;9.32;;;8.48;;
27804;SDS011;15183;51.350;11.102;2023-06-22T09:58:57;12.10;;;8.88;;
27804;SDS011;15183;51.350;11.102;2023-06-22T10:01:24;10.00;;;8.30;;
27804;SDS011;15183;51.350;11.102;2023-06-22T10:03:52;8.73;;;7.93;;
27804;SDS011;15183;51.350;11.102;2023-06-22T10:06:22;9.65;;;8.75;;
27804;SDS011;15183;51.350;11.102;2023-06-22T10:08:50;15.13;;;8.75;;
27804;SDS011;15183;51.350;11.102;2023-06-22T10:11:17;14.73;;;8.20;;
27804;SDS011;15183;51.350;11.102;2023-06-22T10:13:43;8.00;;;7.18;;
27804;SDS011;15183;51.350;11.102;2023-06-22T10:16:10;10.38;;;8.00;;
27804;SDS011;15183;51.350;11.102;2023-06-22T10:18:37;9.07;;;7.40;;
27804;SDS011;15183;51.350;11.102;2023-06-22T10:21:03;10.25;;;7.30;;
27804;SDS011;15183;51.350;11.102;2023-06-22T10:23:32;8.88;;;6.95;;
27804;SDS011;15183;51.350;11.102;2023-06-22T10:25:58;7.85;;;7.07;;
27804;SDS011;15183;51.350;11.102;2023-06-22T10:28:25;6.90;;;6.20;;
27804;SDS011;15183;51.350;11.102;2023-06-22T10:30:51;8.85;;;6.28;;
27804;SDS011;15183;51.350;11.102;2023-06-22T10:33:17;6.88;;;6.18;;
27804;SDS011;15183;51.350;11.102;2023-06-22T10:35:44;6.75;;;6.05;;
27804;SDS011;15183;51.350;11.102;2023-06-22T10:38:11;7.22;;;6.55;;
27804;SDS011;15183;51.350;11.102;2023-06-22T10:40:37;7.38;;;6.63;;
27804;SDS011;15183;51.350;11.102;2023-06-22T10:43:05;6.43;;;5.82;;
27804;SDS011;15183;51.350;11.102;2023-06-22T10:45:31;8.80;;;6.40;;
27804;SDS011;15183;51.350;11.102;2023-06-22T10:47:58;7.40;;;6.68;;
27804;SDS011;15183;51.350;11.102;2023-06-22T10:50:24;8.30;;;7.45;;
27804;SDS011;15183;51.350;11.102;2023-06-22T10:52:51;6.70;;;6.10;;
27804;SDS011;15183;51.350;11.102;2023-06-22T10:55:18;11.57;;;6.22;;
27804;SDS011;15183;51.350;11.102;2023-06-22T10:57:44;6.55;;;5.90;;
27804;SDS011;15183;51.350;11.102;2023-06-22T11:00:13;7.38;;;6.35;;
27804;SDS011;15183;51.350;11.102;2023-06-22T11:02:41;6.35;;;5.70;;
27804;SDS011;15183;51.350;11.102;2023-06-22T11:05:07;7.72;;;5.78;;
27804;SDS011;15183;51.350;11.102;2023-06-22T11:07:34;6.55;;;5.50;;
27804;SDS011;15183;51.350;11.102;2023-06-22T11:10:00;7.30;;;6.60;;
27804;SDS011;15183;51.350;11.102;2023-06-22T11:12:27;6.40;;;5.50;;
27804;SDS011;15183;51.350;11.102;2023-06-22T11:14:53;8.48;;;6.03;;
27804;SDS011;15183;51.350;11.102;2023-06-22T11:17:22;8.57;;;5.90;;
27804;SDS011;15183;51.350;11.102;2023-06-22T11:19:49;7.32;;;6.00;;
27804;SDS011;15183;51.350;11.102;2023-06-22T11:22:16;6.60;;;5.70;;
27804;SDS011;15183;51.350;11.102;2023-06-22T11:24:42;8.85;;;5.72;;
27804;SDS011;15183;51.350;11.102;2023-06-22T11:27:09;6.18;;;5.57;;
27804;SDS011;15183;51.350;11.102;2023-06-22T11:29:35;5.63;;;5.03;;
27804;SDS011;15183;51.350;11.102;2023-06-22T11:32:02;7.35;;;5.60;;
27804;SDS011;15183;51.350;11.102;2023-06-22T11:34:28;7.97;;;5.70;;
27804;SDS011;15183;51.350;11.102;2023-06-22T11:36:55;5.20;;;4.80;;
27804;SDS011;15183;51.350;11.102;2023-06-22T11:39:21;5.53;;;5.03;;
27804;SDS011;15183;51.350;11.102;2023-06-22T11:41:48;7.40;;;5.07;;
27804;SDS011;15183;51.350;11.102;2023-06-22T11:44:14;4.97;;;4.55;;
27804;SDS011;15183;51.350;11.102;2023-06-22T11:46:40;5.18;;;4.78;;
27804;SDS011;15183;51.350;11.102;2023-06-22T11:49:07;4.93;;;4.53;;
27804;SDS011;15183;51.350;11.102;2023-06-22T11:51:34;7.00;;;5.47;;
27804;SDS011;15183;51.350;11.102;2023-06-22T11:54:00;5.25;;;4.75;;
27804;SDS011;15183;51.350;11.102;2023-06-22T11:56:27;6.38;;;4.72;;
27804;SDS011;15183;51.350;11.102;2023-06-22T11:58:54;5.50;;;5.10;;
27804;SDS011;15183;51.350;11.102;2023-06-22T12:01:20;5.30;;;4.80;;
27804;SDS011;15183;51.350;11.102;2023-06-22T12:03:47;5.05;;;4.10;;
27804;SDS011;15183;51.350;11.102;2023-06-22T12:06:13;5.10;;;4.60;;
27804;SDS011;15183;51.350;11.102;2023-06-22T12:08:40;7.15;;;5.40;;
27804;SDS011;15183;51.350;11.102;2023-06-22T12:11:06;5.38;;;4.78;;
27804;SDS011;15183;51.350;11.102;2023-06-22T12:13:33;5.68;;;5.00;;
27804;SDS011;15183;51.350;11.102;2023-06-22T12:15:59;5.10;;;4.60;;
27804;SDS011;15183;51.350;11.102;2023-06-22T12:18:25;5.90;;;4.85;;
27804;SDS011;15183;51.350;11.102;2023-06-22T12:20:52;5.20;;;4.70;;
27804;SDS011;15183;51.350;11.102;2023-06-22T12:23:18;5.68;;;5.15;;
27804;SDS011;15183;51.350;11.102;2023-06-22T12:25:45;6.25;;;5.65;;
27804;SDS011;15183;51.350;11.102;2023-06-22T12:28:11;6.10;;;4.93;;
27804;SDS011;15183;51.350;11.102;2023-06-22T12:30:38;6.35;;;5.72;;
27804;SDS011;15183;51.350;11.102;2023-06-22T12:33:04;5.50;;;4.90;;
27804;SDS011;15183;51.350;11.102;2023-06-22T12:35:31;5.78;;;5.18;;
27804;SDS011;15183;51.350;11.102;2023-06-22T12:37:58;6.97;;;4.95;;
27804;SDS011;15183;51.350;11.102;2023-06-22T12:40:24;7.65;;;5.32;;
27804;SDS011;15183;51.350;11.102;2023-06-22T12:42:50;5.93;;;4.93;;
27804;SDS011;15183;51.350;11.102;2023-06-22T12:45:17;5.35;;;4.85;;
27804;SDS011;15183;51.350;11.102;2023-06-22T12:47:44;6.93;;;5.30;;
27804;SDS011;15183;51.350;11.102;2023-06-22T12:50:10;7.10;;;5.30;;
27804;SDS011;15183;51.350;11.102;2023-06-22T12:52:37;5.47;;;4.97;;
27804;SDS011;15183;51.350;11.102;2023-06-22T12:55:05;5.72;;;5.05;;
27804;SDS011;15183;51.350;11.102;2023-06-22T12:57:32;6.28;;;5.50;;
27804;SDS011;15183;51.350;11.102;2023-06-22T12:59:59;6.05;;;5.43;;
27804;SDS011;15183;51.350;11.102;2023-06-22T13:02:26;7.18;;;5.10;;
27804;SDS011;15183;51.350;11.102;2023-06-22T13:04:53;6.93;;;4.45;;
27804;SDS011;15183;51.350;11.102;2023-06-22T13:07:19;7.30;;;4.75;;
27804;SDS011;15183;51.350;11.102;2023-06-22T13:09:46;4.88;;;4.47;;
27804;SDS011;15183;51.350;11.102;2023-06-22T13:12:12;4.65;;;4.25;;
27804;SDS011;15183;51.350;11.102;2023-06-22T13:14:39;6.18;;;5.05;;
27804;SDS011;15183;51.350;11.102;2023-06-22T13:17:05;5.38;;;4.70;;
27804;SDS011;15183;51.350;11.102;2023-06-22T13:19:31;5.65;;;5.15;;
27804;SDS011;15183;51.350;11.102;2023-06-22T13:21:58;5.13;;;4.70;;
27804;SDS011;15183;51.350;11.102;2023-06-22T13:24:25;4.63;;;4.22;;
27804;SDS011;15183;51.350;11.102;2023-06-22T13:26:52;5.10;;;4.60;;
27804;SDS011;15183;51.350;11.102;2023-06-22T13:29:18;5.65;;;4.47;;
27804;SDS011;15183;51.350;11.102;2023-06-22T13:31:44;4.55;;;4.15;;
27804;SDS011;15183;51.350;11.102;2023-06-22T13:34:11;4.88;;;4.40;;
27804;SDS011;15183;51.350;11.102;2023-06-22T13:36:38;4.75;;;4.35;;
27804;SDS011;15183;51.350;11.102;2023-06-22T13:39:04;4.90;;;4.50;;
27804;SDS011;15183;51.350;11.102;2023-06-22T13:41:30;5.50;;;5.00;;
27804;SDS011;15183;51.350;11.102;2023-06-22T13:43:57;5.90;;;4.97;;
27804;SDS011;15183;51.350;11.102;2023-06-22T13:46:24;5.32;;;4.68;;
27804;SDS011;15183;51.350;11.102;2023-06-22T13:48:50;5.38;;;4.82;;
27804;SDS011;15183;51.350;11.102;2023-06-22T13:51:17;8.75;;;4.95;;
27804;SDS011;15183;51.350;11.102;2023-06-22T13:53:43;5.40;;;4.43;;
27804;SDS011;15183;51.350;11.102;2023-06-22T13:56:09;5.72;;;5.00;;
27804;SDS011;15183;51.350;11.102;2023-06-22T13:58:36;6.10;;;4.68;;
27804;SDS011;15183;51.350;11.102;2023-06-22T14:01:03;8.25;;;5.00;;
27804;SDS011;15183;51.350;11.102;2023-06-22T14:03:29;6.75;;;5.40;;
27804;SDS011;15183;51.350;11.102;2023-06-22T14:05:55;5.35;;;4.85;;
27804;SDS011;15183;51.350;11.102;2023-06-22T14:08:23;6.90;;;5.13;;
27804;SDS011;15183;51.350;11.102;2023-06-22T14:10:50;6.43;;;4.72;;
27804;SDS011;15183;51.350;11.102;2023-06-22T14:13:19;7.43;;;5.55;;
27804;SDS011;15183;51.350;11.102;2023-06-22T14:15:45;5.80;;;5.15;;
27804;SDS011;15183;51.350;11.102;2023-06-22T14:18:13;8.05;;;5.68;;
27804;SDS011;15183;51.350;11.102;2023-06-22T14:20:40;6.03;;;5.10;;
27804;SDS011;15183;51.350;11.102;2023-06-22T14:23:07;7.00;;;5.47;;
27804;SDS011;15183;51.350;11.102;2023-06-22T14:25:33;5.95;;;5.35;;
27804;SDS011;15183;51.350;11.102;2023-06-22T14:28:00;7.68;;;5.43;;
27804;SDS011;15183;51.350;11.102;2023-06-22T14:30:26;21.63;;;5.75;;
27804;SDS011;15183;51.350;11.102;2023-06-22T14:32:52;6.68;;;5.65;;
27804;SDS011;15183;51.350;11.102;2023-06-22T14:35:19;6.72;;;5.90;;